Time;durP1;ratioP1;P1;durP2;ratioP2;P2;SDS_P1;SDS_P2;PMS_P1;PMS_P2;Temp;Humidity;BMP_temperature;BMP_pressure;BME280_temperature;BME280_humidity;BME280_pressure;Samples;Min_cycle;Max_cycle;Signal;HPM_P1;HPM_P2
2022/12/21 00:01:58;;;;;;;7.27;5.20;;;;;;;;;;5037103;28;20556;-68
2022/12/21 00:04:26;;;;;;;6.13;5.30;;;;;;;;;;5039470;28;20203;-69
2022/12/21 00:06:53;;;;;;;8.40;5.93;;;;;;;;;;5039505;28;20216;-68
2022/12/21 00:09:22;;;;;;;9.93;6.13;;;;;;;;;;5038629;28;20693;-68
2022/12/21 00:11:49;;;;;;;7.90;6.10;;;;;;;;;;5037105;28;20297;-69
2022/12/21 00:14:16;;;;;;;7.23;5.47;;;;;;;;;;5036483;28;20228;-69
2022/12/21 00:16:43;;;;;;;12.73;5.60;;;;;;;;;;5034818;28;20269;-69
2022/12/21 00:19:14;;;;;;;12.03;6.07;;;;;;;;;;5038393;28;20215;-68
2022/12/21 00:21:41;;;;;;;14.43;6.27;;;;;;;;;;5035403;28;20218;-68
2022/12/21 00:24:08;;;;;;;12.67;6.33;;;;;;;;;;5038387;28;20706;-68
2022/12/21 00:26:37;;;;;;;8.00;5.90;;;;;;;;;;5031792;28;20624;-69
2022/12/21 00:29:05;;;;;;;8.83;5.87;;;;;;;;;;5039341;28;20212;-68
2022/12/21 00:31:33;;;;;;;12.83;6.30;;;;;;;;;;5048414;28;20215;-69
2022/12/21 00:34:00;;;;;;;8.60;5.40;;;;;;;;;;5047425;28;20269;-68
2022/12/21 00:36:28;;;;;;;10.73;6.17;;;;;;;;;;5041937;28;20207;-68
2022/12/21 00:38:56;;;;;;;7.83;5.57;;;;;;;;;;5038925;28;20253;-68
2022/12/21 00:41:23;;;;;;;8.20;5.90;;;;;;;;;;5039448;28;20265;-68
2022/12/21 00:43:54;;;;;;;8.47;5.80;;;;;;;;;;5034248;28;20207;-68
2022/12/21 00:46:22;;;;;;;13.97;6.03;;;;;;;;;;5047445;28;20211;-68
2022/12/21 00:48:50;;;;;;;10.77;5.27;;;;;;;;;;5032281;28;20816;-68
2022/12/21 00:51:18;;;;;;;10.97;5.13;;;;;;;;;;5029980;28;20263;-68
2022/12/21 00:53:46;;;;;;;9.37;6.00;;;;;;;;;;5045354;28;20215;-68
2022/12/21 00:56:13;;;;;;;10.80;5.77;;;;;;;;;;5048048;28;20258;-68
2022/12/21 00:58:40;;;;;;;6.87;5.50;;;;;;;;;;5034741;28;20200;-68
2022/12/21 01:01:09;;;;;;;6.60;4.37;;;;;;;;;;5029372;28;20216;-68
2022/12/21 01:03:36;;;;;;;8.03;4.77;;;;;;;;;;5037766;28;20231;-68
2022/12/21 01:06:04;;;;;;;7.77;5.17;;;;;;;;;;5029992;28;20209;-68
2022/12/21 01:08:31;;;;;;;8.30;4.90;;;;;;;;;;5041801;28;20848;-69
2022/12/21 01:10:59;;;;;;;7.43;4.83;;;;;;;;;;5031883;28;20240;-68
2022/12/21 01:13:26;;;;;;;11.13;4.90;;;;;;;;;;5029114;28;20262;-69
2022/12/21 01:15:53;;;;;;;9.60;4.77;;;;;;;;;;5029869;28;20220;-69
2022/12/21 01:18:22;;;;;;;6.23;4.60;;;;;;;;;;5039550;28;20710;-68
2022/12/21 01:20:50;;;;;;;8.97;4.67;;;;;;;;;;5037500;28;20613;-69
2022/12/21 01:23:17;;;;;;;5.83;4.83;;;;;;;;;;5042663;28;20293;-68
2022/12/21 01:25:45;;;;;;;5.27;4.57;;;;;;;;;;5038554;28;20666;-68
2022/12/21 01:28:12;;;;;;;7.63;4.57;;;;;;;;;;5036206;28;20216;-68
2022/12/21 01:30:40;;;;;;;8.30;5.33;;;;;;;;;;5031835;28;20208;-68
2022/12/21 01:33:07;;;;;;;8.27;4.80;;;;;;;;;;5029371;28;20220;-69
2022/12/21 01:35:39;;;;;;;8.13;4.63;;;;;;;;;;5030971;28;20698;-68
2022/12/21 01:38:06;;;;;;;6.53;4.77;;;;;;;;;;5040199;28;20298;-68
2022/12/21 01:40:34;;;;;;;8.17;5.43;;;;;;;;;;5032831;28;20204;-69
2022/12/21 01:43:01;;;;;;;14.30;4.83;;;;;;;;;;5038753;28;20690;-67
2022/12/21 01:45:28;;;;;;;6.20;4.87;;;;;;;;;;5032658;28;20204;-68
2022/12/21 01:47:58;;;;;;;6.43;4.73;;;;;;;;;;5049151;28;20211;-69
2022/12/21 01:50:29;;;;;;;6.70;5.07;;;;;;;;;;5046387;28;20208;-69
2022/12/21 01:52:59;;;;;;;5.07;4.47;;;;;;;;;;5037013;28;20214;-67
2022/12/21 01:55:27;;;;;;;5.83;5.17;;;;;;;;;;5029635;28;20290;-67
2022/12/21 01:57:54;;;;;;;8.53;5.30;;;;;;;;;;5029210;28;20228;-69
2022/12/21 02:00:21;;;;;;;7.50;4.83;;;;;;;;;;5047299;28;20203;-67
2022/12/21 02:02:50;;;;;;;8.00;4.77;;;;;;;;;;5034179;28;20219;-67
2022/12/21 02:05:21;;;;;;;7.30;5.53;;;;;;;;;;5047914;28;20219;-67
2022/12/21 02:07:48;;;;;;;5.73;4.60;;;;;;;;;;5048951;28;20238;-67
2022/12/21 02:10:17;;;;;;;8.23;4.10;;;;;;;;;;5036654;28;20231;-67
2022/12/21 02:12:45;;;;;;;4.97;4.57;;;;;;;;;;5045245;28;20208;-67
2022/12/21 02:15:12;;;;;;;6.00;4.97;;;;;;;;;;5036239;28;20253;-67
2022/12/21 02:17:45;;;;;;;7.37;5.50;;;;;;;;;;5037532;28;20212;-67
2022/12/21 02:20:20;;;;;;;9.73;4.60;;;;;;;;;;5043800;28;20219;-67
2022/12/21 02:22:57;;;;;;;5.53;4.53;;;;;;;;;;5037340;28;20222;-67
2022/12/21 02:25:42;;;;;;;6.33;4.63;;;;;;;;;;5037181;28;20211;-67
2022/12/21 02:28:27;;;;;;;6.13;4.33;;;;;;;;;;5041592;28;20234;-67
2022/12/21 02:31:00;;;;;;;6.67;5.13;;;;;;;;;;5048882;28;20295;-67
2022/12/21 02:33:33;;;;;;;6.43;4.70;;;;;;;;;;5040497;28;20270;-67
2022/12/21 02:36:06;;;;;;;7.53;4.97;;;;;;;;;;5028824;28;20698;-67
2022/12/21 02:38:36;;;;;;;4.40;4.00;;;;;;;;;;5038582;28;20208;-67
2022/12/21 02:41:06;;;;;;;8.23;5.50;;;;;;;;;;5048370;28;20219;-67
2022/12/21 02:46:27;;;;;;;5.47;4.97;;;;;;;;;;5046715;28;20214;-67
2022/12/21 02:48:58;;;;;;;5.57;4.27;;;;;;;;;;5034848;28;20208;-67
2022/12/21 02:51:29;;;;;;;5.43;4.73;;;;;;;;;;5041099;28;20208;-68
2022/12/21 02:53:56;;;;;;;8.33;5.40;;;;;;;;;;5038429;28;20282;-67
2022/12/21 02:59:29;;;;;;;8.80;5.67;;;;;;;;;;5043396;28;20316;-67
2022/12/21 03:02:21;;;;;;;5.50;5.00;;;;;;;;;;5052199;28;20211;-67
2022/12/21 03:04:56;;;;;;;8.90;5.37;;;;;;;;;;5040461;28;20261;-67
2022/12/21 03:07:29;;;;;;;14.87;5.43;;;;;;;;;;5045629;28;20202;-67
2022/12/21 03:10:00;;;;;;;7.77;5.43;;;;;;;;;;5043958;28;20232;-67
2022/12/21 03:12:31;;;;;;;7.63;5.30;;;;;;;;;;5048609;28;20412;-67
2022/12/21 03:15:02;;;;;;;6.83;4.97;;;;;;;;;;5031323;28;20235;-67
2022/12/21 03:17:32;;;;;;;7.03;5.03;;;;;;;;;;5039054;28;20211;-67
2022/12/21 03:20:01;;;;;;;9.93;5.27;;;;;;;;;;5051065;28;20211;-67
2022/12/21 03:22:33;;;;;;;8.60;5.83;;;;;;;;;;5042629;28;20204;-67
2022/12/21 03:25:03;;;;;;;9.33;5.27;;;;;;;;;;5038426;28;20200;-68
2022/12/21 03:27:32;;;;;;;7.97;5.83;;;;;;;;;;5046076;28;20215;-67
2022/12/21 03:30:01;;;;;;;8.07;5.30;;;;;;;;;;5051083;28;20211;-67
2022/12/21 03:32:33;;;;;;;11.07;5.37;;;;;;;;;;5044641;28;20207;-67
2022/12/21 03:35:01;;;;;;;8.73;5.70;;;;;;;;;;5037980;28;20638;-67
2022/12/21 03:37:30;;;;;;;7.70;5.10;;;;;;;;;;5046347;28;20203;-68
2022/12/21 03:40:01;;;;;;;7.13;5.07;;;;;;;;;;5050608;28;20208;-68
2022/12/21 03:42:29;;;;;;;8.23;4.97;;;;;;;;;;5041824;28;20213;-68
2022/12/21 03:44:58;;;;;;;6.90;5.70;;;;;;;;;;5043362;28;20212;-68
2022/12/21 03:47:29;;;;;;;8.53;5.37;;;;;;;;;;5037089;28;20207;-67
2022/12/21 03:49:58;;;;;;;8.70;5.57;;;;;;;;;;5050605;28;20265;-68
2022/12/21 03:52:27;;;;;;;7.43;5.20;;;;;;;;;;5046381;28;20204;-67
2022/12/21 03:54:56;;;;;;;7.93;5.27;;;;;;;;;;5034007;28;20239;-68
2022/12/21 03:57:23;;;;;;;7.33;5.40;;;;;;;;;;5041234;28;20208;-68
2022/12/21 03:59:51;;;;;;;5.60;5.03;;;;;;;;;;5035271;28;20208;-68
2022/12/21 04:02:21;;;;;;;5.73;4.70;;;;;;;;;;5047730;28;20219;-68
2022/12/21 04:04:51;;;;;;;5.90;4.67;;;;;;;;;;5040598;28;20662;-68
2022/12/21 04:07:24;;;;;;;7.57;5.60;;;;;;;;;;5030628;28;20282;-68
2022/12/21 04:09:57;;;;;;;6.10;5.37;;;;;;;;;;5043557;28;20243;-68
2022/12/21 04:12:36;;;;;;;10.37;5.00;;;;;;;;;;5031394;28;20312;-68
2022/12/21 04:15:03;;;;;;;9.93;4.90;;;;;;;;;;5043644;28;20346;-67
2022/12/21 04:17:30;;;;;;;6.43;4.47;;;;;;;;;;5031152;28;20349;-68
2022/12/21 04:19:59;;;;;;;7.30;4.83;;;;;;;;;;5045592;28;20262;-68
2022/12/21 04:28:10;;;;;;;5.60;4.47;;;;;;;;;;5030985;28;20219;-68
2022/12/21 04:30:37;;;;;;;5.30;4.33;;;;;;;;;;5030110;28;20219;-68
2022/12/21 04:33:05;;;;;;;6.13;4.70;;;;;;;;;;5030255;28;20213;-68
2022/12/21 04:35:32;;;;;;;7.83;4.57;;;;;;;;;;5048150;28;20644;-68
2022/12/21 04:37:59;;;;;;;7.63;4.77;;;;;;;;;;5031421;28;20213;-67
2022/12/21 04:40:26;;;;;;;6.70;4.40;;;;;;;;;;5049648;28;20615;-68
2022/12/21 04:42:53;;;;;;;9.57;4.77;;;;;;;;;;5031628;28;20266;-68
2022/12/21 04:45:20;;;;;;;6.03;4.63;;;;;;;;;;5034199;28;20203;-67
2022/12/21 04:47:47;;;;;;;6.77;4.57;;;;;;;;;;5039433;28;20899;-68
2022/12/21 04:50:14;;;;;;;6.13;4.47;;;;;;;;;;5048611;28;20212;-68
2022/12/21 04:52:41;;;;;;;7.87;4.97;;;;;;;;;;5047177;28;20207;-68
2022/12/21 04:55:10;;;;;;;6.43;4.87;;;;;;;;;;5040222;28;20330;-68
2022/12/21 04:57:37;;;;;;;6.90;4.60;;;;;;;;;;5034895;28;20212;-68
2022/12/21 05:00:05;;;;;;;9.97;4.80;;;;;;;;;;5038927;28;20271;-68
2022/12/21 05:02:32;;;;;;;7.60;4.93;;;;;;;;;;5029845;28;20215;-68
2022/12/21 05:04:59;;;;;;;6.40;4.80;;;;;;;;;;5031893;28;20635;-68
2022/12/21 05:07:26;;;;;;;5.83;5.00;;;;;;;;;;5045974;28;20212;-68
2022/12/21 05:09:53;;;;;;;6.83;4.53;;;;;;;;;;5039501;28;20266;-68
2022/12/21 05:12:21;;;;;;;6.37;4.30;;;;;;;;;;5044889;28;20257;-68
2022/12/21 05:14:48;;;;;;;6.40;4.30;;;;;;;;;;5042046;28;20204;-68
2022/12/21 05:17:15;;;;;;;5.00;4.50;;;;;;;;;;5029216;28;20212;-68
2022/12/21 05:19:42;;;;;;;5.43;4.37;;;;;;;;;;5035082;28;20483;-68
2022/12/21 05:22:09;;;;;;;6.30;4.50;;;;;;;;;;5044413;28;20712;-68
2022/12/21 05:24:36;;;;;;;9.90;4.30;;;;;;;;;;5033302;28;20199;-68
2022/12/21 05:27:03;;;;;;;6.27;4.33;;;;;;;;;;5047401;28;20686;-68
2022/12/21 05:29:32;;;;;;;6.17;4.03;;;;;;;;;;5046645;28;20748;-68
2022/12/21 05:31:59;;;;;;;6.63;4.47;;;;;;;;;;5030492;28;20204;-68
2022/12/21 05:34:26;;;;;;;5.00;3.83;;;;;;;;;;5029499;28;20567;-68
2022/12/21 05:36:53;;;;;;;4.63;4.10;;;;;;;;;;5029570;28;20271;-68
2022/12/21 05:39:20;;;;;;;5.10;4.30;;;;;;;;;;5040217;28;20208;-68
2022/12/21 05:41:47;;;;;;;6.97;4.43;;;;;;;;;;5034536;28;20257;-68
2022/12/21 05:44:14;;;;;;;4.50;3.80;;;;;;;;;;5031088;28;20200;-68
2022/12/21 05:46:42;;;;;;;8.47;4.00;;;;;;;;;;5030207;28;20201;-68
2022/12/21 05:49:09;;;;;;;6.27;3.73;;;;;;;;;;5041800;28;20208;-68
2022/12/21 05:51:36;;;;;;;4.67;3.70;;;;;;;;;;5029483;28;20615;-68
2022/12/21 05:54:03;;;;;;;3.70;3.00;;;;;;;;;;5031627;28;20213;-69
2022/12/21 05:56:30;;;;;;;4.43;3.97;;;;;;;;;;5037035;28;20235;-68
2022/12/21 05:58:57;;;;;;;3.77;3.47;;;;;;;;;;5029434;28;20204;-68
2022/12/21 06:01:24;;;;;;;5.17;3.60;;;;;;;;;;5035456;28;20211;-67
2022/12/21 06:03:53;;;;;;;5.83;3.90;;;;;;;;;;5045267;28;20584;-68
2022/12/21 06:06:20;;;;;;;4.57;3.40;;;;;;;;;;5043199;28;20327;-68
2022/12/21 06:08:47;;;;;;;4.60;4.00;;;;;;;;;;5031000;28;20658;-67
2022/12/21 06:11:15;;;;;;;4.67;3.87;;;;;;;;;;5035566;28;20344;-68
2022/12/21 06:13:42;;;;;;;5.67;3.57;;;;;;;;;;5045074;28;20685;-68
2022/12/21 06:16:10;;;;;;;4.93;3.80;;;;;;;;;;5037968;28;20224;-68
2022/12/21 06:18:37;;;;;;;6.03;3.87;;;;;;;;;;5045527;28;20333;-67
2022/12/21 06:21:06;;;;;;;4.00;3.27;;;;;;;;;;5042928;28;20274;-67
2022/12/21 06:23:34;;;;;;;3.73;3.43;;;;;;;;;;5028890;28;20227;-68
2022/12/21 06:26:02;;;;;;;4.37;3.97;;;;;;;;;;5034946;28;20203;-68
2022/12/21 06:28:29;;;;;;;4.77;3.93;;;;;;;;;;5049538;28;20261;-67
2022/12/21 06:30:56;;;;;;;4.20;3.60;;;;;;;;;;5033025;28;20647;-69
2022/12/21 06:33:24;;;;;;;4.60;3.57;;;;;;;;;;5032895;28;20219;-68
2022/12/21 06:35:55;;;;;;;5.37;3.73;;;;;;;;;;5043011;28;20219;-69
2022/12/21 06:38:23;;;;;;;5.73;3.80;;;;;;;;;;5037912;28;20251;-69
2022/12/21 06:40:54;;;;;;;5.20;3.67;;;;;;;;;;5038601;28;20204;-69
2022/12/21 06:43:21;;;;;;;4.70;3.73;;;;;;;;;;5035142;28;20299;-69
2022/12/21 06:45:52;;;;;;;3.60;3.30;;;;;;;;;;5032467;28;20855;-67
2022/12/21 06:48:20;;;;;;;3.20;2.90;;;;;;;;;;5030620;28;20212;-68
2022/12/21 06:50:51;;;;;;;4.27;3.00;;;;;;;;;;5032405;28;20204;-68
2022/12/21 06:53:18;;;;;;;6.17;3.57;;;;;;;;;;5035154;28;20207;-68
2022/12/21 06:55:46;;;;;;;5.27;3.13;;;;;;;;;;5039813;28;20679;-68
2022/12/21 06:58:14;;;;;;;4.63;3.80;;;;;;;;;;5031544;28;20219;-69
2022/12/21 07:00:41;;;;;;;4.15;3.75;;;;;;;;;;5044575;28;20956;-69
2022/12/21 07:03:08;;;;;;;5.70;3.40;;;;;;;;;;5039434;28;20772;-68
2022/12/21 07:05:36;;;;;;;4.37;3.97;;;;;;;;;;5039589;28;20208;-67
2022/12/21 07:11:16;;;;;;;5.93;3.57;;;;;;;;;;5016182;28;20699;-68
2022/12/21 07:13:44;;;;;;;4.93;4.00;;;;;;;;;;5043449;28;20220;-68
2022/12/21 07:16:11;;;;;;;4.37;3.47;;;;;;;;;;5040202;28;20224;-68
2022/12/21 07:18:39;;;;;;;4.20;3.67;;;;;;;;;;5042328;28;20208;-69
2022/12/21 07:24:06;;;;;;;3.10;2.87;;;;;;;;;;5048820;28;20222;-60
2022/12/21 07:26:34;;;;;;;3.60;3.30;;;;;;;;;;5044155;28;20607;-68
2022/12/21 07:29:01;;;;;;;4.93;4.10;;;;;;;;;;5030189;28;20205;-68
2022/12/21 07:31:28;;;;;;;7.93;3.67;;;;;;;;;;5039506;28;20216;-68
2022/12/21 07:33:56;;;;;;;5.40;4.00;;;;;;;;;;5048935;28;20224;-68
2022/12/21 07:36:23;;;;;;;4.17;3.63;;;;;;;;;;5049770;28;20346;-66
2022/12/21 07:38:51;;;;;;;4.07;3.77;;;;;;;;;;5041508;28;20212;-67
2022/12/21 07:41:18;;;;;;;3.67;3.23;;;;;;;;;;5030588;28;20208;-67
2022/12/21 07:43:47;;;;;;;3.40;3.10;;;;;;;;;;5030391;28;20274;-67
2022/12/21 07:46:14;;;;;;;6.73;3.47;;;;;;;;;;5030779;28;20582;-67
2022/12/21 07:48:41;;;;;;;3.67;3.47;;;;;;;;;;5030482;28;20216;-67
2022/12/21 07:51:09;;;;;;;5.63;3.77;;;;;;;;;;5030320;28;20223;-67
2022/12/21 07:53:36;;;;;;;5.30;3.80;;;;;;;;;;5029778;28;20212;-67
2022/12/21 07:56:04;;;;;;;5.00;4.10;;;;;;;;;;5030396;28;20796;-67
2022/12/21 07:58:31;;;;;;;3.70;3.40;;;;;;;;;;5030207;28;20212;-68
2022/12/21 08:01:05;;;;;;;4.60;3.73;;;;;;;;;;5030257;28;20223;-67
2022/12/21 08:03:32;;;;;;;5.80;4.27;;;;;;;;;;5030365;28;20319;-67
2022/12/21 08:05:59;;;;;;;5.37;4.00;;;;;;;;;;5029980;28;20248;-67
2022/12/21 08:08:26;;;;;;;4.67;3.73;;;;;;;;;;5030258;28;20208;-67
2022/12/21 08:10:53;;;;;;;4.53;3.77;;;;;;;;;;5030098;28;20251;-67
2022/12/21 08:13:20;;;;;;;5.60;3.63;;;;;;;;;;5029900;28;20557;-67
2022/12/21 08:15:47;;;;;;;7.80;2.90;;;;;;;;;;5029713;28;21133;-67
2022/12/21 08:18:16;;;;;;;4.20;3.80;;;;;;;;;;5030358;28;20211;-67
2022/12/21 08:20:44;;;;;;;5.63;4.10;;;;;;;;;;5030031;28;20208;-67
2022/12/21 08:23:11;;;;;;;6.10;3.80;;;;;;;;;;5029841;28;20220;-67
2022/12/21 08:25:38;;;;;;;8.00;3.67;;;;;;;;;;5029674;28;20215;-67
2022/12/21 08:28:05;;;;;;;4.13;3.67;;;;;;;;;;5029790;28;20295;-67
2022/12/21 08:30:33;;;;;;;6.07;3.70;;;;;;;;;;5029945;28;20247;-68
2022/12/21 08:33:00;;;;;;;5.30;3.67;;;;;;;;;;5029450;28;20651;-67
2022/12/21 08:35:30;;;;;;;4.73;4.00;;;;;;;;;;5028793;28;20212;-69
2022/12/21 08:37:57;;;;;;;3.93;3.50;;;;;;;;;;5028706;28;20236;-67
2022/12/21 08:40:24;;;;;;;3.83;3.53;;;;;;;;;;5028783;28;20212;-66
2022/12/21 08:42:52;;;;;;;3.83;3.53;;;;;;;;;;5028949;28;20772;-67
2022/12/21 08:45:19;;;;;;;3.70;3.40;;;;;;;;;;5026774;28;20204;-67
2022/12/21 08:47:46;;;;;;;3.67;3.40;;;;;;;;;;5028343;28;20258;-70
2022/12/21 08:50:13;;;;;;;4.20;3.80;;;;;;;;;;5028839;28;20302;-67
2022/12/21 08:52:41;;;;;;;4.40;3.70;;;;;;;;;;5028735;28;20215;-69
2022/12/21 08:55:08;;;;;;;4.63;3.47;;;;;;;;;;5028256;28;20489;-69
2022/12/21 08:57:35;;;;;;;3.83;3.47;;;;;;;;;;5028188;28;20236;-67
2022/12/21 09:00:03;;;;;;;5.77;3.77;;;;;;;;;;5028471;28;20363;-67
2022/12/21 09:02:30;;;;;;;4.23;3.83;;;;;;;;;;5028477;28;20570;-68
2022/12/21 09:04:57;;;;;;;5.90;4.20;;;;;;;;;;5028161;28;20274;-67
2022/12/21 09:07:24;;;;;;;3.57;3.27;;;;;;;;;;5028196;28;20220;-67
2022/12/21 09:09:52;;;;;;;4.40;3.83;;;;;;;;;;5041093;28;20204;-67
2022/12/21 09:12:19;;;;;;;5.77;3.90;;;;;;;;;;5038639;28;20211;-66
2022/12/21 09:14:46;;;;;;;3.63;3.33;;;;;;;;;;5031880;28;20678;-66
2022/12/21 09:17:13;;;;;;;5.10;3.43;;;;;;;;;;5046453;28;20268;-67
2022/12/21 09:19:40;;;;;;;3.20;2.90;;;;;;;;;;5046267;28;20591;-67
2022/12/21 09:22:07;;;;;;;3.13;2.83;;;;;;;;;;5047866;28;20261;-67
2022/12/21 09:24:34;;;;;;;2.97;2.70;;;;;;;;;;5038713;28;20635;-67
2022/12/21 09:27:02;;;;;;;4.50;3.70;;;;;;;;;;5048002;28;20258;-67
2022/12/21 09:29:29;;;;;;;3.50;3.13;;;;;;;;;;5039409;28;20255;-67
2022/12/21 09:31:57;;;;;;;7.70;3.50;;;;;;;;;;5040837;28;20216;-67
2022/12/21 09:34:24;;;;;;;4.47;3.27;;;;;;;;;;5030382;28;20208;-68
2022/12/21 09:36:51;;;;;;;3.27;2.97;;;;;;;;;;5027046;28;20224;-68
2022/12/21 09:39:18;;;;;;;3.20;3.00;;;;;;;;;;5027226;28;20579;-68
2022/12/21 09:41:49;;;;;;;2.70;2.50;;;;;;;;;;5027740;28;20258;-67
2022/12/21 09:44:26;;;;;;;3.20;2.90;;;;;;;;;;5027892;28;20633;-68
2022/12/21 09:46:54;;;;;;;3.87;2.80;;;;;;;;;;5027697;28;20214;-67
2022/12/21 09:49:23;;;;;;;3.20;2.80;;;;;;;;;;5027633;28;20208;-68
2022/12/21 09:51:53;;;;;;;3.80;2.97;;;;;;;;;;5027573;28;20216;-68
2022/12/21 09:54:22;;;;;;;2.97;2.70;;;;;;;;;;5027075;28;20674;-67
2022/12/21 09:56:50;;;;;;;5.37;3.10;;;;;;;;;;5027725;28;20236;-67
2022/12/21 09:59:19;;;;;;;2.27;2.17;;;;;;;;;;5027918;28;20406;-67
2022/12/21 10:01:51;;;;;;;3.87;3.10;;;;;;;;;;5031005;28;20212;-68
2022/12/21 10:04:25;;;;;;;4.40;2.90;;;;;;;;;;5031404;28;20231;-68
2022/12/21 10:06:57;;;;;;;3.03;2.83;;;;;;;;;;5031623;28;20245;-68
2022/12/21 10:09:30;;;;;;;2.97;2.77;;;;;;;;;;5031797;28;20212;-68
2022/12/21 10:12:04;;;;;;;3.33;3.00;;;;;;;;;;5031931;28;20216;-68
2022/12/21 10:14:36;;;;;;;3.07;2.77;;;;;;;;;;5031849;28;20240;-68
2022/12/21 10:17:09;;;;;;;7.53;3.10;;;;;;;;;;5032430;28;20718;-68
2022/12/21 10:19:40;;;;;;;2.90;2.70;;;;;;;;;;5032461;28;20215;-68
2022/12/21 10:22:10;;;;;;;4.67;3.03;;;;;;;;;;5032287;28;20711;-68
2022/12/21 10:24:42;;;;;;;4.47;2.70;;;;;;;;;;5032180;28;20674;-68
2022/12/21 10:27:12;;;;;;;3.10;2.90;;;;;;;;;;5032184;28;20201;-68
2022/12/21 10:29:41;;;;;;;3.30;3.00;;;;;;;;;;5032214;28;20215;-68
2022/12/21 10:32:11;;;;;;;3.47;2.97;;;;;;;;;;5032041;28;20216;-68
2022/12/21 10:34:46;;;;;;;5.10;3.70;;;;;;;;;;5030983;28;20215;-68
2022/12/21 10:37:14;;;;;;;3.10;2.83;;;;;;;;;;5043205;28;20254;-68
2022/12/21 10:39:41;;;;;;;2.53;2.43;;;;;;;;;;5043647;28;20283;-68
2022/12/21 10:42:10;;;;;;;2.50;2.40;;;;;;;;;;5031929;28;20200;-68
2022/12/21 10:44:40;;;;;;;1.80;1.70;;;;;;;;;;5040906;28;20211;-68
2022/12/21 10:47:13;;;;;;;2.40;2.27;;;;;;;;;;5025646;28;20212;-68
2022/12/21 10:49:41;;;;;;;2.73;2.20;;;;;;;;;;5035407;28;20258;-68
2022/12/21 10:52:23;;;;;;;2.33;2.03;;;;;;;;;;5048028;28;20273;-68
2022/12/21 10:54:50;;;;;;;1.87;1.70;;;;;;;;;;5037814;28;20300;-68
2022/12/21 10:57:17;;;;;;;2.17;2.03;;;;;;;;;;5035873;28;20307;-68
2022/12/21 10:59:44;;;;;;;2.10;1.93;;;;;;;;;;5031033;28;20722;-68
2022/12/21 11:02:32;;;;;;;2.10;2.00;;;;;;;;;;5031238;28;20246;-68
2022/12/21 11:04:59;;;;;;;1.97;1.70;;;;;;;;;;5031074;28;20212;-68
2022/12/21 11:07:27;;;;;;;2.40;2.23;;;;;;;;;;5031191;28;20200;-68
2022/12/21 11:09:58;;;;;;;4.33;2.67;;;;;;;;;;5032019;28;20722;-68
2022/12/21 11:12:25;;;;;;;3.33;2.47;;;;;;;;;;5041475;28;20207;-68
2022/12/21 11:14:53;;;;;;;2.43;2.27;;;;;;;;;;5050793;28;20215;-68
2022/12/21 11:17:24;;;;;;;6.13;2.60;;;;;;;;;;5050814;28;20732;-68
2022/12/21 11:19:51;;;;;;;2.87;2.20;;;;;;;;;;5032697;28;20638;-68
2022/12/21 11:22:21;;;;;;;1.87;1.77;;;;;;;;;;5030485;28;20290;-67
2022/12/21 11:24:49;;;;;;;2.53;2.20;;;;;;;;;;5036943;28;20235;-68
2022/12/21 11:27:22;;;;;;;2.20;2.10;;;;;;;;;;5040639;28;20208;-67
2022/12/21 11:29:51;;;;;;;2.50;2.30;;;;;;;;;;5035125;28;20236;-68
2022/12/21 11:32:18;;;;;;;2.13;2.03;;;;;;;;;;5040527;28;20212;-65
2022/12/21 11:34:49;;;;;;;2.70;2.20;;;;;;;;;;5030230;28;20290;-63
2022/12/21 11:37:24;;;;;;;2.23;1.73;;;;;;;;;;5039612;28;20224;-65
2022/12/21 11:39:51;;;;;;;1.70;1.60;;;;;;;;;;5038407;28;20215;-63
2022/12/21 11:42:19;;;;;;;2.10;2.00;;;;;;;;;;5032221;28;20243;-71
2022/12/21 11:44:46;;;;;;;5.10;2.10;;;;;;;;;;5029923;28;20200;-63
2022/12/21 11:47:24;;;;;;;2.20;2.10;;;;;;;;;;5030417;28;20204;-64
2022/12/21 11:50:05;;;;;;;2.17;2.00;;;;;;;;;;5030645;28;20204;-67
2022/12/21 11:52:39;;;;;;;1.97;1.97;;;;;;;;;;5041181;28;20212;-67
2022/12/21 11:55:10;;;;;;;1.87;1.77;;;;;;;;;;5047519;28;20238;-67
2022/12/21 11:57:42;;;;;;;1.90;1.80;;;;;;;;;;5045871;28;20307;-62
2022/12/21 12:00:11;;;;;;;1.93;1.57;;;;;;;;;;5033627;28;20231;-67
2022/12/21 12:02:52;;;;;;;2.67;2.20;;;;;;;;;;5042133;28;20288;-66
2022/12/21 12:05:30;;;;;;;2.30;2.20;;;;;;;;;;5032602;28;20816;-66
2022/12/21 12:08:00;;;;;;;3.23;2.17;;;;;;;;;;5039586;28;20241;-66
2022/12/21 12:10:39;;;;;;;2.50;2.30;;;;;;;;;;5037123;28;20294;-66
2022/12/21 12:13:12;;;;;;;2.00;1.90;;;;;;;;;;5030421;28;20259;-63
2022/12/21 12:15:44;;;;;;;5.40;2.47;;;;;;;;;;5044652;28;20215;-66
2022/12/21 12:18:21;;;;;;;3.77;2.07;;;;;;;;;;5034775;28;20276;-67
2022/12/21 12:21:05;;;;;;;1.80;1.77;;;;;;;;;;5034150;28;20272;-65
2022/12/21 12:23:38;;;;;;;2.17;2.07;;;;;;;;;;5030898;28;20208;-68
2022/12/21 12:26:13;;;;;;;2.67;2.27;;;;;;;;;;5036643;28;20215;-66
2022/12/21 12:28:54;;;;;;;2.33;2.23;;;;;;;;;;5046830;28;20596;-67
2022/12/21 12:31:28;;;;;;;2.33;2.13;;;;;;;;;;5035599;28;20203;-67
2022/12/21 12:34:19;;;;;;;3.40;2.10;;;;;;;;;;5029919;28;20201;-67
2022/12/21 12:36:53;;;;;;;3.20;3.00;;;;;;;;;;5015060;28;20313;-67
2022/12/21 12:39:25;;;;;;;3.50;3.20;;;;;;;;;;5048745;28;20239;-66
2022/12/21 12:41:54;;;;;;;3.40;3.17;;;;;;;;;;5043587;28;20215;-67
2022/12/21 12:44:27;;;;;;;4.20;3.93;;;;;;;;;;5031852;28;20215;-67
2022/12/21 12:46:58;;;;;;;2.63;2.47;;;;;;;;;;5032482;28;20228;-67
2022/12/21 12:49:29;;;;;;;2.93;2.57;;;;;;;;;;5029838;28;21193;-68
2022/12/21 12:52:04;;;;;;;2.40;2.30;;;;;;;;;;5029930;28;20741;-68
2022/12/21 12:54:38;;;;;;;3.80;3.47;;;;;;;;;;5031111;28;20319;-68
2022/12/21 12:57:10;;;;;;;3.70;3.40;;;;;;;;;;5029148;28;20262;-67
2022/12/21 12:59:41;;;;;;;4.60;3.83;;;;;;;;;;5029039;28;20204;-71
2022/12/21 13:02:12;;;;;;;3.90;2.90;;;;;;;;;;5040723;28;20220;-68
2022/12/21 13:04:57;;;;;;;3.40;3.17;;;;;;;;;;5030284;28;20220;-67
2022/12/21 13:07:29;;;;;;;3.80;3.40;;;;;;;;;;5024148;28;20215;-68
2022/12/21 13:10:00;;;;;;;2.23;2.13;;;;;;;;;;5029882;28;20254;-66
2022/12/21 13:12:30;;;;;;;2.70;2.50;;;;;;;;;;5038693;28;20219;-67
2022/12/21 13:14:59;;;;;;;2.67;2.47;;;;;;;;;;5037891;28;20370;-67
2022/12/21 13:17:31;;;;;;;2.17;2.07;;;;;;;;;;5027944;28;20223;-67
2022/12/21 13:19:58;;;;;;;4.33;3.13;;;;;;;;;;5028344;28;20836;-67
2022/12/21 13:22:29;;;;;;;3.43;3.13;;;;;;;;;;5034667;28;20240;-67
2022/12/21 13:24:59;;;;;;;3.37;3.17;;;;;;;;;;5030131;28;20200;-67
2022/12/21 13:27:28;;;;;;;5.23;4.57;;;;;;;;;;5028063;28;20216;-67
2022/12/21 13:29:57;;;;;;;3.67;3.37;;;;;;;;;;5045486;28;20207;-67
2022/12/21 13:32:27;;;;;;;3.97;3.47;;;;;;;;;;5036023;28;20625;-67
2022/12/21 13:34:56;;;;;;;3.90;2.37;;;;;;;;;;5028150;28;20295;-68
2022/12/21 13:37:24;;;;;;;3.60;3.30;;;;;;;;;;5027996;28;20299;-68
2022/12/21 13:40:00;;;;;;;4.50;3.27;;;;;;;;;;5027877;28;20219;-66
2022/12/21 13:42:29;;;;;;;3.00;2.80;;;;;;;;;;5028006;28;20212;-67
2022/12/21 13:44:59;;;;;;;3.97;2.40;;;;;;;;;;5027815;28;20215;-67
2022/12/21 13:47:27;;;;;;;3.93;2.50;;;;;;;;;;5028168;28;20212;-68
2022/12/21 13:50:02;;;;;;;2.40;2.20;;;;;;;;;;5027414;28;20205;-67
2022/12/21 13:52:32;;;;;;;2.37;2.27;;;;;;;;;;5027013;28;20216;-69
2022/12/21 13:55:04;;;;;;;2.90;2.70;;;;;;;;;;5037918;28;20234;-68
2022/12/21 13:57:34;;;;;;;2.73;2.10;;;;;;;;;;5040739;28;20208;-67
2022/12/21 14:00:05;;;;;;;2.93;2.73;;;;;;;;;;5031792;28;20232;-68
2022/12/21 14:02:40;;;;;;;2.40;2.30;;;;;;;;;;5035330;28;20214;-67
2022/12/21 14:05:11;;;;;;;2.87;2.53;;;;;;;;;;5048102;28;20297;-67
2022/12/21 14:07:46;;;;;;;7.27;4.00;;;;;;;;;;5041087;28;20218;-68
2022/12/21 14:10:19;;;;;;;5.67;3.27;;;;;;;;;;5034080;28;20238;-67
2022/12/21 14:12:54;;;;;;;3.33;3.03;;;;;;;;;;5031369;28;20199;-68
2022/12/21 14:15:25;;;;;;;5.00;3.70;;;;;;;;;;5031772;28;20199;-67
2022/12/21 14:17:53;;;;;;;4.73;3.20;;;;;;;;;;5048217;28;20617;-67
2022/12/21 14:20:24;;;;;;;3.27;2.63;;;;;;;;;;5048149;28;20281;-67
2022/12/21 14:22:51;;;;;;;4.30;3.40;;;;;;;;;;5032494;28;20205;-67
2022/12/21 14:25:21;;;;;;;3.13;2.87;;;;;;;;;;5029167;28;20266;-67
2022/12/21 14:28:03;;;;;;;4.70;2.50;;;;;;;;;;5027991;28;20220;-66
2022/12/21 14:30:31;;;;;;;3.00;2.50;;;;;;;;;;5028290;28;20285;-67
2022/12/21 14:32:59;;;;;;;3.07;2.47;;;;;;;;;;5028285;28;20261;-67
2022/12/21 14:35:31;;;;;;;2.53;2.43;;;;;;;;;;5036109;28;20208;-67
2022/12/21 14:38:11;;;;;;;2.53;2.23;;;;;;;;;;5027702;28;20709;-68
2022/12/21 14:40:57;;;;;;;3.20;2.50;;;;;;;;;;5028034;28;20223;-68
2022/12/21 14:43:24;;;;;;;2.77;2.53;;;;;;;;;;5028291;28;20586;-68
2022/12/21 14:45:51;;;;;;;3.23;3.03;;;;;;;;;;5028214;28;20587;-68
2022/12/21 14:48:41;;;;;;;4.27;2.60;;;;;;;;;;5032071;28;20216;-67
2022/12/21 14:51:09;;;;;;;2.93;2.63;;;;;;;;;;5031634;28;20227;-67
2022/12/21 14:53:38;;;;;;;2.40;2.30;;;;;;;;;;5031333;28;20364;-69
2022/12/21 14:56:08;;;;;;;3.27;2.93;;;;;;;;;;5031463;28;20235;-68
2022/12/21 14:58:36;;;;;;;3.70;2.93;;;;;;;;;;5031550;28;20232;-67
2022/12/21 15:01:24;;;;;;;3.30;2.40;;;;;;;;;;5035944;28;20207;-67
2022/12/21 15:03:55;;;;;;;3.27;1.17;;;;;;;;;;5035988;28;20283;-68
2022/12/21 15:06:26;;;;;;;1.23;1.13;;;;;;;;;;5036493;28;20933;-68
2022/12/21 15:08:53;;;;;;;1.00;1.00;;;;;;;;;;5039338;28;20204;-68
2022/12/21 15:11:23;;;;;;;0.80;0.80;;;;;;;;;;5039550;28;20235;-67
2022/12/21 15:13:52;;;;;;;0.50;0.50;;;;;;;;;;5031069;28;20251;-67
2022/12/21 15:16:21;;;;;;;0.40;0.40;;;;;;;;;;5031379;28;20216;-67